sensor_id;sensor_type;location;lat;lon;timestamp;P1;durP1;ratioP1;P2;durP2;ratioP2
25213;SDS011;13160;51.834;4.706;2023-10-09T00:00:13;21.90;;;12.32;;
25213;SDS011;13160;51.834;4.706;2023-10-09T00:02:56;21.15;;;12.95;;
25213;SDS011;13160;51.834;4.706;2023-10-09T00:05:27;20.52;;;11.27;;
25213;SDS011;13160;51.834;4.706;2023-10-09T00:08:06;20.23;;;12.02;;
25213;SDS011;13160;51.834;4.706;2023-10-09T00:10:37;21.98;;;10.93;;
25213;SDS011;13160;51.834;4.706;2023-10-09T00:13:21;17.63;;;11.23;;
25213;SDS011;13160;51.834;4.706;2023-10-09T00:15:55;22.52;;;12.43;;
25213;SDS011;13160;51.834;4.706;2023-10-09T00:18:27;22.60;;;11.20;;
25213;SDS011;13160;51.834;4.706;2023-10-09T00:20:57;22.08;;;12.20;;
25213;SDS011;13160;51.834;4.706;2023-10-09T00:23:38;24.00;;;13.38;;
25213;SDS011;13160;51.834;4.706;2023-10-09T00:26:07;22.30;;;12.48;;
25213;SDS011;13160;51.834;4.706;2023-10-09T00:28:39;22.88;;;13.10;;
25213;SDS011;13160;51.834;4.706;2023-10-09T00:31:11;21.35;;;12.65;;
25213;SDS011;13160;51.834;4.706;2023-10-09T00:33:42;21.08;;;12.57;;
25213;SDS011;13160;51.834;4.706;2023-10-09T00:36:11;27.40;;;13.80;;
25213;SDS011;13160;51.834;4.706;2023-10-09T00:38:46;20.75;;;12.50;;
25213;SDS011;13160;51.834;4.706;2023-10-09T00:41:17;23.23;;;11.73;;
25213;SDS011;13160;51.834;4.706;2023-10-09T00:43:52;25.40;;;12.30;;
25213;SDS011;13160;51.834;4.706;2023-10-09T00:46:25;21.58;;;12.25;;
25213;SDS011;13160;51.834;4.706;2023-10-09T00:48:56;19.23;;;11.73;;
25213;SDS011;13160;51.834;4.706;2023-10-09T00:51:28;20.15;;;11.98;;
25213;SDS011;13160;51.834;4.706;2023-10-09T00:54:02;22.80;;;12.68;;
25213;SDS011;13160;51.834;4.706;2023-10-09T00:56:40;21.45;;;11.50;;
25213;SDS011;13160;51.834;4.706;2023-10-09T00:59:20;21.58;;;12.07;;
25213;SDS011;13160;51.834;4.706;2023-10-09T01:01:51;22.63;;;11.77;;
25213;SDS011;13160;51.834;4.706;2023-10-09T01:04:24;21.00;;;11.88;;
25213;SDS011;13160;51.834;4.706;2023-10-09T01:06:58;21.63;;;11.68;;
25213;SDS011;13160;51.834;4.706;2023-10-09T01:09:35;23.83;;;11.80;;
25213;SDS011;13160;51.834;4.706;2023-10-09T01:12:04;22.83;;;10.80;;
25213;SDS011;13160;51.834;4.706;2023-10-09T01:14:35;20.92;;;10.75;;
25213;SDS011;13160;51.834;4.706;2023-10-09T01:17:07;18.88;;;11.63;;
25213;SDS011;13160;51.834;4.706;2023-10-09T01:19:37;23.38;;;10.95;;
25213;SDS011;13160;51.834;4.706;2023-10-09T01:22:06;18.85;;;10.13;;
25213;SDS011;13160;51.834;4.706;2023-10-09T01:24:42;20.13;;;10.38;;
25213;SDS011;13160;51.834;4.706;2023-10-09T01:27:10;20.80;;;10.82;;
25213;SDS011;13160;51.834;4.706;2023-10-09T01:29:42;23.80;;;11.07;;
25213;SDS011;13160;51.834;4.706;2023-10-09T01:32:13;17.85;;;10.07;;
25213;SDS011;13160;51.834;4.706;2023-10-09T01:34:45;22.75;;;9.77;;
25213;SDS011;13160;51.834;4.706;2023-10-09T01:37:17;17.60;;;10.02;;
25213;SDS011;13160;51.834;4.706;2023-10-09T01:39:51;17.13;;;10.23;;
25213;SDS011;13160;51.834;4.706;2023-10-09T01:42:24;19.75;;;10.10;;
25213;SDS011;13160;51.834;4.706;2023-10-09T01:45:01;19.08;;;9.05;;
25213;SDS011;13160;51.834;4.706;2023-10-09T01:47:42;20.35;;;10.52;;
25213;SDS011;13160;51.834;4.706;2023-10-09T01:50:18;20.67;;;9.65;;
25213;SDS011;13160;51.834;4.706;2023-10-09T01:52:48;23.92;;;9.82;;
25213;SDS011;13160;51.834;4.706;2023-10-09T01:55:19;21.60;;;9.98;;
25213;SDS011;13160;51.834;4.706;2023-10-09T01:58:01;16.50;;;9.60;;
25213;SDS011;13160;51.834;4.706;2023-10-09T02:00:32;14.05;;;9.55;;
25213;SDS011;13160;51.834;4.706;2023-10-09T02:03:08;19.15;;;10.13;;
25213;SDS011;13160;51.834;4.706;2023-10-09T02:05:41;17.65;;;10.15;;
25213;SDS011;13160;51.834;4.706;2023-10-09T02:08:10;15.95;;;9.38;;
25213;SDS011;13160;51.834;4.706;2023-10-09T02:10:40;20.83;;;10.02;;
25213;SDS011;13160;51.834;4.706;2023-10-09T02:13:14;24.05;;;11.18;;
25213;SDS011;13160;51.834;4.706;2023-10-09T02:15:44;20.45;;;10.63;;
25213;SDS011;13160;51.834;4.706;2023-10-09T02:18:25;18.05;;;10.45;;
25213;SDS011;13160;51.834;4.706;2023-10-09T02:21:07;23.95;;;10.38;;
25213;SDS011;13160;51.834;4.706;2023-10-09T02:23:42;17.30;;;10.30;;
25213;SDS011;13160;51.834;4.706;2023-10-09T02:26:18;22.80;;;10.88;;
25213;SDS011;13160;51.834;4.706;2023-10-09T02:28:52;20.30;;;9.88;;
25213;SDS011;13160;51.834;4.706;2023-10-09T02:31:26;19.85;;;11.35;;
25213;SDS011;13160;51.834;4.706;2023-10-09T02:34:03;19.73;;;9.95;;
25213;SDS011;13160;51.834;4.706;2023-10-09T02:36:39;22.95;;;10.30;;
25213;SDS011;13160;51.834;4.706;2023-10-09T02:39:09;17.50;;;10.48;;
25213;SDS011;13160;51.834;4.706;2023-10-09T02:41:51;19.17;;;10.02;;
25213;SDS011;13160;51.834;4.706;2023-10-09T02:44:25;19.63;;;10.48;;
25213;SDS011;13160;51.834;4.706;2023-10-09T02:46:56;20.38;;;9.90;;
25213;SDS011;13160;51.834;4.706;2023-10-09T02:49:25;17.10;;;9.38;;
25213;SDS011;13160;51.834;4.706;2023-10-09T02:51:54;22.30;;;10.75;;
25213;SDS011;13160;51.834;4.706;2023-10-09T02:54:23;24.33;;;10.77;;
25213;SDS011;13160;51.834;4.706;2023-10-09T02:57:04;23.88;;;10.38;;
25213;SDS011;13160;51.834;4.706;2023-10-09T02:59:42;19.63;;;10.18;;
25213;SDS011;13160;51.834;4.706;2023-10-09T03:02:11;22.77;;;10.38;;
25213;SDS011;13160;51.834;4.706;2023-10-09T03:04:40;23.13;;;10.20;;
25213;SDS011;13160;51.834;4.706;2023-10-09T03:07:08;23.52;;;10.57;;
25213;SDS011;13160;51.834;4.706;2023-10-09T03:09:40;19.60;;;10.30;;
25213;SDS011;13160;51.834;4.706;2023-10-09T03:12:10;17.40;;;10.25;;
25213;SDS011;13160;51.834;4.706;2023-10-09T03:14:39;25.75;;;11.20;;
25213;SDS011;13160;51.834;4.706;2023-10-09T03:17:09;22.73;;;11.48;;
25213;SDS011;13160;51.834;4.706;2023-10-09T03:19:39;19.55;;;10.23;;
25213;SDS011;13160;51.834;4.706;2023-10-09T03:22:10;23.60;;;10.50;;
25213;SDS011;13160;51.834;4.706;2023-10-09T03:24:38;24.05;;;10.30;;
25213;SDS011;13160;51.834;4.706;2023-10-09T03:27:13;24.95;;;10.65;;
25213;SDS011;13160;51.834;4.706;2023-10-09T03:29:42;22.83;;;9.90;;
25213;SDS011;13160;51.834;4.706;2023-10-09T03:32:15;22.35;;;10.63;;
25213;SDS011;13160;51.834;4.706;2023-10-09T03:34:46;17.95;;;11.13;;
25213;SDS011;13160;51.834;4.706;2023-10-09T03:37:17;27.23;;;11.88;;
25213;SDS011;13160;51.834;4.706;2023-10-09T03:40:01;20.05;;;11.63;;
25213;SDS011;13160;51.834;4.706;2023-10-09T03:42:35;21.17;;;11.57;;
25213;SDS011;13160;51.834;4.706;2023-10-09T03:45:08;22.02;;;11.35;;
25213;SDS011;13160;51.834;4.706;2023-10-09T03:47:52;25.90;;;11.98;;
25213;SDS011;13160;51.834;4.706;2023-10-09T03:50:28;24.17;;;11.80;;
25213;SDS011;13160;51.834;4.706;2023-10-09T03:53:04;21.38;;;11.18;;
25213;SDS011;13160;51.834;4.706;2023-10-09T03:55:39;24.70;;;11.63;;
25213;SDS011;13160;51.834;4.706;2023-10-09T03:58:09;22.40;;;11.25;;
25213;SDS011;13160;51.834;4.706;2023-10-09T04:00:40;27.13;;;12.57;;
25213;SDS011;13160;51.834;4.706;2023-10-09T04:03:13;22.23;;;11.82;;
25213;SDS011;13160;51.834;4.706;2023-10-09T04:05:43;26.38;;;12.60;;
25213;SDS011;13160;51.834;4.706;2023-10-09T04:08:12;22.90;;;11.68;;
25213;SDS011;13160;51.834;4.706;2023-10-09T04:10:46;23.15;;;11.88;;
25213;SDS011;13160;51.834;4.706;2023-10-09T04:13:30;31.20;;;11.70;;
25213;SDS011;13160;51.834;4.706;2023-10-09T04:16:02;23.42;;;12.02;;
25213;SDS011;13160;51.834;4.706;2023-10-09T04:18:46;19.48;;;10.60;;
25213;SDS011;13160;51.834;4.706;2023-10-09T04:21:16;21.13;;;10.40;;
25213;SDS011;13160;51.834;4.706;2023-10-09T04:23:46;21.73;;;10.85;;
25213;SDS011;13160;51.834;4.706;2023-10-09T04:26:32;24.20;;;10.48;;
25213;SDS011;13160;51.834;4.706;2023-10-09T04:29:04;21.42;;;10.43;;
25213;SDS011;13160;51.834;4.706;2023-10-09T04:31:33;22.88;;;10.90;;
25213;SDS011;13160;51.834;4.706;2023-10-09T04:34:04;21.65;;;10.60;;
25213;SDS011;13160;51.834;4.706;2023-10-09T04:36:55;20.80;;;10.45;;
25213;SDS011;13160;51.834;4.706;2023-10-09T04:39:27;24.25;;;10.95;;
25213;SDS011;13160;51.834;4.706;2023-10-09T04:42:13;27.75;;;12.27;;
25213;SDS011;13160;51.834;4.706;2023-10-09T04:45:07;20.95;;;11.02;;
25213;SDS011;13160;51.834;4.706;2023-10-09T04:48:12;21.75;;;11.20;;
25213;SDS011;13160;51.834;4.706;2023-10-09T04:50:59;20.20;;;10.90;;
25213;SDS011;13160;51.834;4.706;2023-10-09T04:53:45;19.60;;;10.57;;
25213;SDS011;13160;51.834;4.706;2023-10-09T04:56:21;20.23;;;11.27;;
25213;SDS011;13160;51.834;4.706;2023-10-09T04:58:50;26.58;;;11.82;;
25213;SDS011;13160;51.834;4.706;2023-10-09T05:01:31;21.15;;;11.43;;
25213;SDS011;13160;51.834;4.706;2023-10-09T05:04:11;22.42;;;11.43;;
25213;SDS011;13160;51.834;4.706;2023-10-09T05:07:01;23.75;;;11.38;;
25213;SDS011;13160;51.834;4.706;2023-10-09T05:09:49;23.52;;;11.95;;
25213;SDS011;13160;51.834;4.706;2023-10-09T05:12:36;26.65;;;12.20;;
25213;SDS011;13160;51.834;4.706;2023-10-09T05:15:12;24.70;;;12.27;;
25213;SDS011;13160;51.834;4.706;2023-10-09T05:17:43;26.20;;;12.75;;
25213;SDS011;13160;51.834;4.706;2023-10-09T05:20:18;23.77;;;12.38;;
25213;SDS011;13160;51.834;4.706;2023-10-09T05:23:05;24.02;;;12.25;;
25213;SDS011;13160;51.834;4.706;2023-10-09T05:25:47;27.30;;;11.77;;
25213;SDS011;13160;51.834;4.706;2023-10-09T05:28:24;28.33;;;11.98;;
25213;SDS011;13160;51.834;4.706;2023-10-09T05:30:57;23.67;;;11.93;;
25213;SDS011;13160;51.834;4.706;2023-10-09T05:33:37;31.17;;;12.32;;
25213;SDS011;13160;51.834;4.706;2023-10-09T05:36:05;24.60;;;12.30;;
25213;SDS011;13160;51.834;4.706;2023-10-09T05:38:58;20.75;;;12.32;;
25213;SDS011;13160;51.834;4.706;2023-10-09T05:41:44;21.70;;;10.75;;
25213;SDS011;13160;51.834;4.706;2023-10-09T05:44:14;29.38;;;12.57;;
25213;SDS011;13160;51.834;4.706;2023-10-09T05:47:03;22.35;;;11.52;;
25213;SDS011;13160;51.834;4.706;2023-10-09T05:49:47;22.10;;;11.55;;
25213;SDS011;13160;51.834;4.706;2023-10-09T05:52:33;21.15;;;11.55;;
25213;SDS011;13160;51.834;4.706;2023-10-09T05:55:15;20.77;;;11.70;;
25213;SDS011;13160;51.834;4.706;2023-10-09T05:58:08;19.95;;;11.50;;
25213;SDS011;13160;51.834;4.706;2023-10-09T06:00:53;22.20;;;12.05;;
25213;SDS011;13160;51.834;4.706;2023-10-09T06:03:40;27.58;;;11.85;;
25213;SDS011;13160;51.834;4.706;2023-10-09T06:06:22;23.60;;;11.98;;
25213;SDS011;13160;51.834;4.706;2023-10-09T06:09:09;23.85;;;12.57;;
25213;SDS011;13160;51.834;4.706;2023-10-09T06:12:16;23.58;;;11.45;;
25213;SDS011;13160;51.834;4.706;2023-10-09T06:15:03;20.88;;;11.52;;
25213;SDS011;13160;51.834;4.706;2023-10-09T06:17:57;21.75;;;11.45;;
25213;SDS011;13160;51.834;4.706;2023-10-09T06:20:46;25.80;;;11.32;;
25213;SDS011;13160;51.834;4.706;2023-10-09T06:23:49;29.45;;;12.82;;
25213;SDS011;13160;51.834;4.706;2023-10-09T06:26:35;19.13;;;11.80;;
25213;SDS011;13160;51.834;4.706;2023-10-09T06:29:04;23.75;;;10.90;;
25213;SDS011;13160;51.834;4.706;2023-10-09T06:32:00;24.00;;;11.85;;
25213;SDS011;13160;51.834;4.706;2023-10-09T06:35:01;22.52;;;10.85;;
25213;SDS011;13160;51.834;4.706;2023-10-09T06:37:49;21.50;;;11.48;;
25213;SDS011;13160;51.834;4.706;2023-10-09T06:40:38;25.92;;;12.30;;
25213;SDS011;13160;51.834;4.706;2023-10-09T06:43:25;20.80;;;11.45;;
25213;SDS011;13160;51.834;4.706;2023-10-09T06:45:58;20.65;;;11.73;;
25213;SDS011;13160;51.834;4.706;2023-10-09T06:48:46;25.70;;;12.27;;
25213;SDS011;13160;51.834;4.706;2023-10-09T06:51:23;25.00;;;11.25;;
25213;SDS011;13160;51.834;4.706;2023-10-09T06:54:10;22.17;;;11.98;;
25213;SDS011;13160;51.834;4.706;2023-10-09T06:56:44;25.17;;;11.82;;
25213;SDS011;13160;51.834;4.706;2023-10-09T06:59:30;23.98;;;11.98;;
25213;SDS011;13160;51.834;4.706;2023-10-09T07:02:10;22.17;;;12.70;;
25213;SDS011;13160;51.834;4.706;2023-10-09T07:04:58;23.25;;;11.70;;
25213;SDS011;13160;51.834;4.706;2023-10-09T07:07:39;24.75;;;11.40;;
25213;SDS011;13160;51.834;4.706;2023-10-09T07:10:21;29.50;;;12.45;;
25213;SDS011;13160;51.834;4.706;2023-10-09T07:13:07;24.42;;;11.57;;
25213;SDS011;13160;51.834;4.706;2023-10-09T07:15:34;25.20;;;11.57;;
25213;SDS011;13160;51.834;4.706;2023-10-09T07:18:29;22.80;;;12.00;;
25213;SDS011;13160;51.834;4.706;2023-10-09T07:21:16;26.48;;;12.52;;
25213;SDS011;13160;51.834;4.706;2023-10-09T07:23:55;22.77;;;12.32;;
25213;SDS011;13160;51.834;4.706;2023-10-09T07:26:25;21.75;;;11.93;;
25213;SDS011;13160;51.834;4.706;2023-10-09T07:29:15;21.98;;;12.15;;
25213;SDS011;13160;51.834;4.706;2023-10-09T07:31:49;20.83;;;11.75;;
25213;SDS011;13160;51.834;4.706;2023-10-09T07:34:24;20.48;;;11.43;;
25213;SDS011;13160;51.834;4.706;2023-10-09T07:37:20;21.42;;;11.00;;
25213;SDS011;13160;51.834;4.706;2023-10-09T07:39:49;20.52;;;12.02;;
25213;SDS011;13160;51.834;4.706;2023-10-09T07:42:25;25.05;;;10.98;;
25213;SDS011;13160;51.834;4.706;2023-10-09T07:45:02;17.52;;;10.90;;
25213;SDS011;13160;51.834;4.706;2023-10-09T07:47:39;20.15;;;11.38;;
25213;SDS011;13160;51.834;4.706;2023-10-09T07:50:28;17.73;;;11.27;;
25213;SDS011;13160;51.834;4.706;2023-10-09T07:53:08;20.92;;;12.00;;
25213;SDS011;13160;51.834;4.706;2023-10-09T07:55:53;18.05;;;11.13;;
25213;SDS011;13160;51.834;4.706;2023-10-09T07:58:25;21.95;;;11.02;;
25213;SDS011;13160;51.834;4.706;2023-10-09T08:00:55;25.15;;;11.55;;
25213;SDS011;13160;51.834;4.706;2023-10-09T08:03:35;24.27;;;12.68;;
25213;SDS011;13160;51.834;4.706;2023-10-09T08:06:05;20.25;;;11.77;;
25213;SDS011;13160;51.834;4.706;2023-10-09T08:08:51;21.73;;;11.90;;
25213;SDS011;13160;51.834;4.706;2023-10-09T08:11:33;24.98;;;11.75;;
25213;SDS011;13160;51.834;4.706;2023-10-09T08:14:22;21.02;;;12.07;;
25213;SDS011;13160;51.834;4.706;2023-10-09T08:17:11;24.00;;;11.18;;
25213;SDS011;13160;51.834;4.706;2023-10-09T08:19:42;24.63;;;11.48;;
25213;SDS011;13160;51.834;4.706;2023-10-09T08:22:24;22.00;;;10.82;;
25213;SDS011;13160;51.834;4.706;2023-10-09T08:25:18;19.45;;;10.88;;
25213;SDS011;13160;51.834;4.706;2023-10-09T08:27:58;20.17;;;10.73;;
25213;SDS011;13160;51.834;4.706;2023-10-09T08:30:45;20.20;;;10.35;;
25213;SDS011;13160;51.834;4.706;2023-10-09T08:33:31;20.90;;;11.18;;
25213;SDS011;13160;51.834;4.706;2023-10-09T08:36:10;23.10;;;11.75;;
25213;SDS011;13160;51.834;4.706;2023-10-09T08:38:41;21.10;;;11.00;;
25213;SDS011;13160;51.834;4.706;2023-10-09T08:41:12;19.10;;;10.30;;
25213;SDS011;13160;51.834;4.706;2023-10-09T08:43:46;18.98;;;10.63;;
25213;SDS011;13160;51.834;4.706;2023-10-09T08:46:20;22.02;;;10.38;;
25213;SDS011;13160;51.834;4.706;2023-10-09T08:48:55;18.08;;;10.38;;
25213;SDS011;13160;51.834;4.706;2023-10-09T08:51:26;17.70;;;10.55;;
25213;SDS011;13160;51.834;4.706;2023-10-09T08:53:55;21.35;;;11.23;;
25213;SDS011;13160;51.834;4.706;2023-10-09T08:56:24;21.90;;;10.73;;
25213;SDS011;13160;51.834;4.706;2023-10-09T08:58:53;20.65;;;10.82;;
25213;SDS011;13160;51.834;4.706;2023-10-09T09:01:25;17.15;;;10.63;;
25213;SDS011;13160;51.834;4.706;2023-10-09T09:04:00;18.85;;;9.73;;
25213;SDS011;13160;51.834;4.706;2023-10-09T09:06:35;22.38;;;10.23;;
25213;SDS011;13160;51.834;4.706;2023-10-09T09:09:10;20.40;;;9.40;;
25213;SDS011;13160;51.834;4.706;2023-10-09T09:11:42;23.35;;;9.82;;
25213;SDS011;13160;51.834;4.706;2023-10-09T09:14:15;16.48;;;9.68;;
25213;SDS011;13160;51.834;4.706;2023-10-09T09:16:48;15.43;;;8.98;;
25213;SDS011;13160;51.834;4.706;2023-10-09T09:19:20;15.55;;;9.18;;
25213;SDS011;13160;51.834;4.706;2023-10-09T09:22:04;16.05;;;8.75;;
25213;SDS011;13160;51.834;4.706;2023-10-09T09:24:39;16.98;;;8.32;;
25213;SDS011;13160;51.834;4.706;2023-10-09T09:30:22;16.20;;;9.10;;
25213;SDS011;13160;51.834;4.706;2023-10-09T09:32:53;16.90;;;8.07;;
25213;SDS011;13160;51.834;4.706;2023-10-09T09:35:36;13.93;;;8.23;;
25213;SDS011;13160;51.834;4.706;2023-10-09T09:38:05;15.15;;;8.38;;
25213;SDS011;13160;51.834;4.706;2023-10-09T09:40:43;13.65;;;8.05;;
25213;SDS011;13160;51.834;4.706;2023-10-09T09:43:12;16.48;;;8.50;;
25213;SDS011;13160;51.834;4.706;2023-10-09T09:45:48;14.70;;;8.00;;
25213;SDS011;13160;51.834;4.706;2023-10-09T09:48:17;19.90;;;8.40;;
25213;SDS011;13160;51.834;4.706;2023-10-09T09:50:47;17.05;;;7.82;;
25213;SDS011;13160;51.834;4.706;2023-10-09T09:53:20;17.23;;;7.97;;
25213;SDS011;13160;51.834;4.706;2023-10-09T09:55:50;15.45;;;7.75;;
25213;SDS011;13160;51.834;4.706;2023-10-09T09:58:25;19.70;;;8.88;;
25213;SDS011;13160;51.834;4.706;2023-10-09T10:01:00;16.67;;;7.43;;
25213;SDS011;13160;51.834;4.706;2023-10-09T10:03:42;16.55;;;7.68;;
25213;SDS011;13160;51.834;4.706;2023-10-09T10:06:17;14.50;;;8.27;;
25213;SDS011;13160;51.834;4.706;2023-10-09T10:08:48;14.75;;;8.10;;
25213;SDS011;13160;51.834;4.706;2023-10-09T10:14:10;15.23;;;7.15;;
25213;SDS011;13160;51.834;4.706;2023-10-09T10:17:02;13.77;;;7.32;;
25213;SDS011;13160;51.834;4.706;2023-10-09T10:20:00;11.70;;;7.00;;
25213;SDS011;13160;51.834;4.706;2023-10-09T10:22:50;15.60;;;7.70;;
25213;SDS011;13160;51.834;4.706;2023-10-09T10:28:17;14.82;;;7.68;;
25213;SDS011;13160;51.834;4.706;2023-10-09T10:31:05;15.15;;;7.70;;
25213;SDS011;13160;51.834;4.706;2023-10-09T10:36:37;14.63;;;7.10;;
25213;SDS011;13160;51.834;4.706;2023-10-09T10:39:10;16.45;;;7.63;;
25213;SDS011;13160;51.834;4.706;2023-10-09T10:41:53;13.75;;;7.35;;
25213;SDS011;13160;51.834;4.706;2023-10-09T10:44:26;14.75;;;8.13;;
25213;SDS011;13160;51.834;4.706;2023-10-09T10:47:05;14.30;;;7.75;;
25213;SDS011;13160;51.834;4.706;2023-10-09T10:49:49;13.98;;;8.02;;
25213;SDS011;13160;51.834;4.706;2023-10-09T10:52:21;14.57;;;7.70;;
25213;SDS011;13160;51.834;4.706;2023-10-09T10:55:10;14.95;;;7.70;;
25213;SDS011;13160;51.834;4.706;2023-10-09T10:58:00;13.18;;;7.40;;
25213;SDS011;13160;51.834;4.706;2023-10-09T11:00:37;16.05;;;6.88;;
25213;SDS011;13160;51.834;4.706;2023-10-09T11:03:23;10.20;;;6.55;;
25213;SDS011;13160;51.834;4.706;2023-10-09T11:06:03;10.60;;;6.78;;
25213;SDS011;13160;51.834;4.706;2023-10-09T11:08:43;13.55;;;6.07;;
25213;SDS011;13160;51.834;4.706;2023-10-09T11:11:23;11.98;;;6.30;;
25213;SDS011;13160;51.834;4.706;2023-10-09T11:14:07;13.10;;;6.20;;
25213;SDS011;13160;51.834;4.706;2023-10-09T11:16:41;12.90;;;6.68;;
25213;SDS011;13160;51.834;4.706;2023-10-09T11:19:14;12.63;;;6.85;;
25213;SDS011;13160;51.834;4.706;2023-10-09T11:21:55;14.65;;;6.55;;
25213;SDS011;13160;51.834;4.706;2023-10-09T11:24:42;12.38;;;5.97;;
25213;SDS011;13160;51.834;4.706;2023-10-09T11:27:14;11.77;;;6.22;;
25213;SDS011;13160;51.834;4.706;2023-10-09T11:29:49;13.57;;;6.35;;
25213;SDS011;13160;51.834;4.706;2023-10-09T11:32:31;11.43;;;6.72;;
25213;SDS011;13160;51.834;4.706;2023-10-09T11:35:11;13.85;;;5.93;;
25213;SDS011;13160;51.834;4.706;2023-10-09T11:37:54;13.55;;;6.35;;
25213;SDS011;13160;51.834;4.706;2023-10-09T11:40:29;10.85;;;6.55;;
25213;SDS011;13160;51.834;4.706;2023-10-09T11:43:15;12.20;;;6.68;;
25213;SDS011;13160;51.834;4.706;2023-10-09T11:45:44;12.40;;;6.78;;
25213;SDS011;13160;51.834;4.706;2023-10-09T11:48:21;13.02;;;6.53;;
25213;SDS011;13160;51.834;4.706;2023-10-09T11:50:55;11.57;;;6.15;;
25213;SDS011;13160;51.834;4.706;2023-10-09T11:53:43;11.65;;;6.07;;
25213;SDS011;13160;51.834;4.706;2023-10-09T11:56:16;14.52;;;6.18;;
25213;SDS011;13160;51.834;4.706;2023-10-09T11:58:48;11.65;;;5.75;;
25213;SDS011;13160;51.834;4.706;2023-10-09T12:01:17;12.48;;;5.88;;
25213;SDS011;13160;51.834;4.706;2023-10-09T12:03:48;13.45;;;5.72;;
25213;SDS011;13160;51.834;4.706;2023-10-09T12:06:18;11.02;;;6.05;;
25213;SDS011;13160;51.834;4.706;2023-10-09T12:08:49;15.63;;;6.28;;
25213;SDS011;13160;51.834;4.706;2023-10-09T12:11:20;10.82;;;6.40;;
25213;SDS011;13160;51.834;4.706;2023-10-09T12:13:56;13.35;;;6.63;;
25213;SDS011;13160;51.834;4.706;2023-10-09T12:16:27;10.85;;;5.53;;
25213;SDS011;13160;51.834;4.706;2023-10-09T12:18:57;13.10;;;6.45;;
25213;SDS011;13160;51.834;4.706;2023-10-09T12:21:26;12.07;;;6.00;;
25213;SDS011;13160;51.834;4.706;2023-10-09T12:23:56;12.82;;;6.18;;
25213;SDS011;13160;51.834;4.706;2023-10-09T12:26:38;13.02;;;6.75;;
25213;SDS011;13160;51.834;4.706;2023-10-09T12:29:10;11.20;;;6.22;;
25213;SDS011;13160;51.834;4.706;2023-10-09T12:31:39;15.13;;;7.53;;
25213;SDS011;13160;51.834;4.706;2023-10-09T12:34:12;11.73;;;5.95;;
25213;SDS011;13160;51.834;4.706;2023-10-09T12:36:42;9.70;;;6.55;;
25213;SDS011;13160;51.834;4.706;2023-10-09T12:39:12;12.65;;;5.95;;
25213;SDS011;13160;51.834;4.706;2023-10-09T12:41:44;11.32;;;6.00;;
25213;SDS011;13160;51.834;4.706;2023-10-09T12:44:14;12.45;;;6.15;;
25213;SDS011;13160;51.834;4.706;2023-10-09T12:46:45;17.17;;;6.75;;
25213;SDS011;13160;51.834;4.706;2023-10-09T12:49:19;12.80;;;6.65;;
25213;SDS011;13160;51.834;4.706;2023-10-09T12:51:51;15.65;;;6.72;;
25213;SDS011;13160;51.834;4.706;2023-10-09T12:54:20;13.57;;;6.38;;
25213;SDS011;13160;51.834;4.706;2023-10-09T12:56:53;14.25;;;6.07;;
25213;SDS011;13160;51.834;4.706;2023-10-09T12:59:24;13.60;;;6.00;;
25213;SDS011;13160;51.834;4.706;2023-10-09T13:01:52;13.25;;;6.18;;
25213;SDS011;13160;51.834;4.706;2023-10-09T13:04:24;12.73;;;7.03;;
25213;SDS011;13160;51.834;4.706;2023-10-09T13:06:59;16.02;;;6.40;;
25213;SDS011;13160;51.834;4.706;2023-10-09T13:09:31;12.75;;;6.72;;
25213;SDS011;13160;51.834;4.706;2023-10-09T13:12:09;11.70;;;6.45;;
25213;SDS011;13160;51.834;4.706;2023-10-09T13:14:46;12.88;;;6.40;;
25213;SDS011;13160;51.834;4.706;2023-10-09T13:17:16;11.02;;;6.10;;
25213;SDS011;13160;51.834;4.706;2023-10-09T13:19:47;13.88;;;6.60;;
25213;SDS011;13160;51.834;4.706;2023-10-09T13:22:15;14.88;;;6.53;;
25213;SDS011;13160;51.834;4.706;2023-10-09T13:24:44;14.70;;;6.82;;
25213;SDS011;13160;51.834;4.706;2023-10-09T13:27:15;12.00;;;5.95;;
25213;SDS011;13160;51.834;4.706;2023-10-09T13:29:49;14.88;;;6.97;;
25213;SDS011;13160;51.834;4.706;2023-10-09T13:32:18;15.65;;;7.38;;
25213;SDS011;13160;51.834;4.706;2023-10-09T13:34:46;12.10;;;6.68;;
25213;SDS011;13160;51.834;4.706;2023-10-09T13:37:16;15.95;;;6.93;;
25213;SDS011;13160;51.834;4.706;2023-10-09T13:39:48;14.55;;;6.43;;
25213;SDS011;13160;51.834;4.706;2023-10-09T13:42:19;12.45;;;6.60;;
25213;SDS011;13160;51.834;4.706;2023-10-09T13:44:53;13.88;;;6.25;;
25213;SDS011;13160;51.834;4.706;2023-10-09T13:47:21;13.80;;;6.78;;
25213;SDS011;13160;51.834;4.706;2023-10-09T13:49:58;12.65;;;6.70;;
25213;SDS011;13160;51.834;4.706;2023-10-09T13:52:27;14.05;;;6.88;;
25213;SDS011;13160;51.834;4.706;2023-10-09T13:54:57;12.90;;;6.05;;
25213;SDS011;13160;51.834;4.706;2023-10-09T13:57:41;13.57;;;6.05;;
25213;SDS011;13160;51.834;4.706;2023-10-09T14:00:13;14.70;;;6.13;;
25213;SDS011;13160;51.834;4.706;2023-10-09T14:02:59;10.80;;;5.35;;
25213;SDS011;13160;51.834;4.706;2023-10-09T14:05:37;14.20;;;6.38;;
25213;SDS011;13160;51.834;4.706;2023-10-09T14:08:19;13.98;;;6.25;;
25213;SDS011;13160;51.834;4.706;2023-10-09T14:10:49;12.73;;;5.75;;
25213;SDS011;13160;51.834;4.706;2023-10-09T14:13:18;11.82;;;5.53;;
25213;SDS011;13160;51.834;4.706;2023-10-09T14:15:54;12.05;;;5.60;;
25213;SDS011;13160;51.834;4.706;2023-10-09T14:18:22;12.75;;;5.70;;
25213;SDS011;13160;51.834;4.706;2023-10-09T14:20:50;13.98;;;6.15;;
25213;SDS011;13160;51.834;4.706;2023-10-09T14:23:22;15.77;;;6.28;;
25213;SDS011;13160;51.834;4.706;2023-10-09T14:25:58;12.00;;;5.28;;
25213;SDS011;13160;51.834;4.706;2023-10-09T14:28:28;12.52;;;5.82;;
25213;SDS011;13160;51.834;4.706;2023-10-09T14:30:58;14.93;;;6.55;;
25213;SDS011;13160;51.834;4.706;2023-10-09T14:33:31;13.10;;;6.45;;
25213;SDS011;13160;51.834;4.706;2023-10-09T14:36:03;12.25;;;6.68;;
25213;SDS011;13160;51.834;4.706;2023-10-09T14:38:33;12.32;;;6.45;;
25213;SDS011;13160;51.834;4.706;2023-10-09T14:41:05;13.27;;;6.85;;
25213;SDS011;13160;51.834;4.706;2023-10-09T14:43:38;14.07;;;6.88;;
25213;SDS011;13160;51.834;4.706;2023-10-09T14:46:12;13.55;;;6.50;;
25213;SDS011;13160;51.834;4.706;2023-10-09T14:48:43;11.68;;;6.70;;
25213;SDS011;13160;51.834;4.706;2023-10-09T14:51:12;16.48;;;6.95;;
25213;SDS011;13160;51.834;4.706;2023-10-09T14:53:41;13.70;;;7.57;;
25213;SDS011;13160;51.834;4.706;2023-10-09T14:56:10;12.70;;;7.45;;
25213;SDS011;13160;51.834;4.706;2023-10-09T14:58:42;13.07;;;6.93;;
25213;SDS011;13160;51.834;4.706;2023-10-09T15:01:15;15.05;;;7.20;;
25213;SDS011;13160;51.834;4.706;2023-10-09T15:03:46;12.73;;;7.55;;
25213;SDS011;13160;51.834;4.706;2023-10-09T15:06:19;13.15;;;6.82;;
25213;SDS011;13160;51.834;4.706;2023-10-09T15:08:47;13.32;;;7.28;;
25213;SDS011;13160;51.834;4.706;2023-10-09T15:11:16;13.15;;;7.65;;
25213;SDS011;13160;51.834;4.706;2023-10-09T15:13:52;18.20;;;7.80;;
25213;SDS011;13160;51.834;4.706;2023-10-09T15:16:22;14.05;;;7.25;;
25213;SDS011;13160;51.834;4.706;2023-10-09T15:18:54;14.43;;;7.13;;
25213;SDS011;13160;51.834;4.706;2023-10-09T15:21:23;16.05;;;8.07;;
25213;SDS011;13160;51.834;4.706;2023-10-09T15:23:55;14.18;;;7.60;;
25213;SDS011;13160;51.834;4.706;2023-10-09T15:26:24;15.90;;;7.30;;
25213;SDS011;13160;51.834;4.706;2023-10-09T15:29:01;15.23;;;7.38;;
25213;SDS011;13160;51.834;4.706;2023-10-09T15:31:35;11.52;;;6.90;;